Главная страница
METAR-TAF:

METAR-TAF

Аэропорты :

Тулиара, Мадагаскар

широта: 23-23S, долгота: 043-44E, высота над уровнем моря: 8 м

METAR: отсутствует

Время: 05:28 (02:28 UTC)

Прогноз

Эта сводка был подготовлена 3 часа и 28 минут назад, в 23:00 UTC
Прогноз действительный с 16-го 00 UTC до 16-го 24 UTC
Ветер 5 Узел от восточный
Видимость 10 км и более
небольшая облачность на высоте 2000 фута
изменения
С 16-го 08 UTC до 16-го 11 UTC
Ветер 10 Узел от западный-юго-западный
небольшая облачность на высоте 2000 фута, Кучево-дождевые.
Отдельные облака на высоте 4000 фута
Вероятность 30% :
временами
С 16-го 12 UTC до 16-го 16 UTC
Видимость: 4500 м
гроза, дождь
изменения
С 16-го 16 UTC до 16-го 19 UTC
Ветер 5 Узел от юго-восточный
небольшая облачность на высоте 2000 фута

TAF: FMST 152300Z 1600/1624 08005KT 9999 FEW020 BECMG 1608/1611 24010KT FEW020CB SCT040 PROB30 TEMPO 1612/1616 4500 TSRA BECMG 1616/1619 14005KT FEW020

Метеонаблюдения и прогнозы для более 4000 аэропортов (сводки METAR и TAF).

Имеющиеся станции представлены на карте желтыми и красными точками.

Чтобы увидеть название станции, наведите на нее мышь.

Затем щелкните, чтобы увидеть метеонаблюдения и метеопрогнозы.

Управление картой: чтобы увеличить масштаб, щелкните зеленые кнопки с черным крестиком; чтобы уменьшить масштаб, щелкните зеленую кнопку с тире; для просмотра соседних карт щелкайте зеленые стрелки.


METAR-TAF: